Address 0xa363900dc68fe379a3fa50a54b8e596a00f3d506 3

 
 
Txn Hash Method
Block
From
To
Value [Txn Fee]
0x72bfa09312dd1e953dd09f9f25250c1795b241c913bf05f21d6d41e52cc3ebedFight184700252021-08-28 2:10:02311 days 1 hr ago0xa363900dc68fe379a3fa50a54b8e596a00f3d506OUT 0xc49f55ff0dd11bc5453c05f7f40dd66dd835b8d70 MATIC0.00190792515
0x0ad4fec59de2be05d6be408349ad79b35b5338c68c8c9c771200ea6defb5b406Fight184700142021-08-28 2:09:36311 days 1 hr ago0xa363900dc68fe379a3fa50a54b8e596a00f3d506OUT 0xc49f55ff0dd11bc5453c05f7f40dd66dd835b8d70 MATIC0.00190792515
0x8d4f8cc6a79dae731bad9ed5fe979329cdf69136eb0d057206a8ee798355cf5eFight184699912021-08-28 2:08:50311 days 1 hr ago0xa363900dc68fe379a3fa50a54b8e596a00f3d506OUT 0xc49f55ff0dd11bc5453c05f7f40dd66dd835b8d70 MATIC0.00190792515
0xd73a7de0059202c9fb6ae6ad39027b1787d84f0912f55112d7e4d9f2dbfa65feFight184699702021-08-28 2:08:08311 days 1 hr ago0xa363900dc68fe379a3fa50a54b8e596a00f3d506OUT 0xc49f55ff0dd11bc5453c05f7f40dd66dd835b8d70 MATIC0.002543920
0xf77c5c6b577c6737a25a911029ee384e53f64f325459f394608cae13575805dbFight184699492021-08-28 2:07:22311 days 1 hr ago0xa363900dc68fe379a3fa50a54b8e596a00f3d506OUT 0xc49f55ff0dd11bc5453c05f7f40dd66dd835b8d70 MATIC0.0043288530
0x0ca1e51c57b45c34d8e2daa4d00a9414801a81ac508a741d7579de2d3de0fc76Fight184324722021-08-27 0:08:51312 days 3 hrs ago0xa363900dc68fe379a3fa50a54b8e596a00f3d506OUT 0xc49f55ff0dd11bc5453c05f7f40dd66dd835b8d70 MATIC0.0038158530
0xcf5c995fa677e837321b4217434e74ceb166f616262e4292d9a5fdc8b9ffc5c5Fight184324282021-08-27 0:07:19312 days 3 hrs ago0xa363900dc68fe379a3fa50a54b8e596a00f3d506OUT 0xc49f55ff0dd11bc5453c05f7f40dd66dd835b8d70 MATIC0.0038158530
0x5ce9fa5d964a3ca5a416c9aef9103e8fd0d1d4dcc9e0de616d495a780b0d1688Fight184324112021-08-27 0:06:45312 days 3 hrs ago0xa363900dc68fe379a3fa50a54b8e596a00f3d506OUT 0xc49f55ff0dd11bc5453c05f7f40dd66dd835b8d70 MATIC0.0038158530
0x30fb15d37fe83b3d38ee4306de19d7913f0761ceaf74fbd819e098ee328db00cFight184323832021-08-27 0:05:45312 days 3 hrs ago0xa363900dc68fe379a3fa50a54b8e596a00f3d506OUT 0xc49f55ff0dd11bc5453c05f7f40dd66dd835b8d70 MATIC0.0038158530
0x54f64ade4eed5d36d724e15df1eaba3ae9f0f257b9a2fea8c25219dedfb85f98Fight184323612021-08-27 0:05:01312 days 3 hrs ago0xa363900dc68fe379a3fa50a54b8e596a00f3d506OUT 0xc49f55ff0dd11bc5453c05f7f40dd66dd835b8d70 MATIC0.0043288530
0xb5afa9571548d381050e9ea4270b8eb9c7dc3778ddaf63aeca5d124b090e7b85Fight184217872021-08-26 17:02:52312 days 10 hrs ago0xa363900dc68fe379a3fa50a54b8e596a00f3d506OUT 0xc49f55ff0dd11bc5453c05f7f40dd66dd835b8d70 MATIC0.0020579130
0x5e37d3a694684a2f0e95e19a197daf7543d4d77a52d9dc72d07bd93a4cdddecfFight184217062021-08-26 16:59:10312 days 10 hrs ago0xa363900dc68fe379a3fa50a54b8e596a00f3d506OUT 0xc49f55ff0dd11bc5453c05f7f40dd66dd835b8d70 MATIC0.0040702432
0x10022348ffa97201458eed8dfb6da85397fb15e3f794f4b92e6e969500685f16Fight184214912021-08-26 16:43:12312 days 10 hrs ago0xa363900dc68fe379a3fa50a54b8e596a00f3d506OUT 0xc49f55ff0dd11bc5453c05f7f40dd66dd835b8d70 MATIC0.0038158530
0x9e02825af874f34a7a5ae6810e619bf61fc22671261e482e177dabbf264a93feFight184214652021-08-26 16:42:20312 days 10 hrs ago0xa363900dc68fe379a3fa50a54b8e596a00f3d506OUT 0xc49f55ff0dd11bc5453c05f7f40dd66dd835b8d70 MATIC0.0040702432
0xe4c83aa3af6d67698e5a11a85c388e4f861c883327c7404db0a95a32cc0797beFight184213482021-08-26 16:38:18312 days 10 hrs ago0xa363900dc68fe379a3fa50a54b8e596a00f3d506OUT 0xc49f55ff0dd11bc5453c05f7f40dd66dd835b8d70 MATIC0.00445182535
0x72bcff214fe05e45f181bd08a94dc0edac48ae255b313bfdcc62abcf564224d9Fight184212572021-08-26 16:30:42312 days 10 hrs ago0xa363900dc68fe379a3fa50a54b8e596a00f3d506OUT 0xc49f55ff0dd11bc5453c05f7f40dd66dd835b8d70 MATIC0.00624732535
0x297e42db3f750bcd5fc21659027e9f94a6f2dec895af228a310a8d8ead720917Buy184205482021-08-26 15:59:10312 days 11 hrs ago0xa363900dc68fe379a3fa50a54b8e596a00f3d506OUT 0x43bab1a12db095641cc8b13c3b23347fa2b3aaa40 MATIC0.0084202830
0xc87868b502d0c46b612694898b185305befef17361939b3ea7e6084549869996Approve184205242021-08-26 15:58:15312 days 11 hrs ago0xa363900dc68fe379a3fa50a54b8e596a00f3d506OUT Simba Empire: SIM Token0 MATIC0.0014001930
0x060f2082b8a2db684e07df6cd528b1caec9aa1dfb7a0958d263388931ca98f8fSwap Exact ETH F...184204982021-08-26 15:57:23312 days 11 hrs ago0xa363900dc68fe379a3fa50a54b8e596a00f3d506OUT QuickSwap: Router0.59625624 MATIC0.003230430
0x67a6de5ecda5171703bec4d6ec79f861376922387361e7b7ebd74e849b2fe0d2Swap Exact ETH F...184204702021-08-26 15:56:23312 days 11 hrs ago0xa363900dc68fe379a3fa50a54b8e596a00f3d506OUT QuickSwap: Router2.095558434763577 MATIC0.0037437630
0x410d8e0b1cecde849121f99b4f2aa8804da9c0912892ae81893c1cd82a16cf9aRegister184204232021-08-26 15:54:49312 days 11 hrs ago0xa363900dc68fe379a3fa50a54b8e596a00f3d506OUT 0xe5b4b1f248de881c8caf0705de46c61ac61f591d0 MATIC0.0009203730
0x1918f972df21a7562ff452b3d11daf872662cef0361882d5460f6cb436cdf6f2Register184204112021-08-26 15:54:16312 days 11 hrs ago0xa363900dc68fe379a3fa50a54b8e596a00f3d506OUT 0xe5b4b1f248de881c8caf0705de46c61ac61f591d0 MATIC0.0023861430
0xb6b4e11ff95408f939783a01d6748f67e4cce9e7ef58f1cd143f1889c146ef9bWithdraw177274492021-08-07 18:54:15331 days 8 hrs ago0xa363900dc68fe379a3fa50a54b8e596a00f3d506OUT USD Coin0 MATIC0.0000853964043.216800547
0xb8ca29117514790b56f96658358fc8e3419f47710d696ac0041da2c2eefabe0bRemove Liquidity...174765052021-07-31 23:45:23338 days 3 hrs ago0xa363900dc68fe379a3fa50a54b8e596a00f3d506OUT QuickSwap: Router0 MATIC0.0002403987271.232100002
0xbd38751421657dfaa36c3b38263e097dc6d342aeda2ddd438a5ee51c3b9364fdTransfer*173900672021-07-29 11:37:37340 days 15 hrs ago0xa363900dc68fe379a3fa50a54b8e596a00f3d506OUT0xb1a5732c8af512cfc73d1543bdf38b0332bf703e0 MATIC0.00002948961.4
[ Download CSV Export 
Latest 2 internal transactions
Parent Txn Hash Block From To Value
0xb8ca29117514790b56f96658358fc8e3419f47710d696ac0041da2c2eefabe0b174765052021-07-31 23:45:23338 days 3 hrs ago QuickSwap: Router0xa363900dc68fe379a3fa50a54b8e596a00f3d5062.899766075983835798 MATIC
0xd9a848793f557c2b466d0c8e8314fbe14a1d775d8e4a0f36c54cec4e17996a1a173599272021-07-28 12:47:20341 days 14 hrs ago QuickSwap: Router0xa363900dc68fe379a3fa50a54b8e596a00f3d5060.000303068011737042 MATIC
[ Download CSV Export 
Loading

Contract Name:
0 MATIC

Compiler Version
0

Optimization Enabled:
0 MATIC

Other Settings:
-NA-
Block Transaction Gas Used Reward
Age Block Fee Address BC Fee Address Voting Power Jailed Incoming
Block Uncle Number Difficulty Gas Used Reward
Loading
Loading
Make sure to use the "Vote Down" button for any spammy posts, and the "Vote Up" for interesting conversations.